createdAt,value
2019-05-22T00:02:34.494Z,19.08
2019-05-22T00:07:42.302Z,19.81
2019-05-22T00:12:50.145Z,17.72
2019-05-22T00:17:57.988Z,18.72
2019-05-22T00:23:05.649Z,18.57
2019-05-22T00:28:13.174Z,19.01
2019-05-22T00:33:20.862Z,19.02
2019-05-22T00:38:28.625Z,18.88
2019-05-22T00:43:36.456Z,19.04
2019-05-22T00:48:44.219Z,19.71
2019-05-22T00:53:51.886Z,21.07
2019-05-22T00:58:59.501Z,20.06
2019-05-22T01:04:07.305Z,20.03
2019-05-22T01:09:15.109Z,19.86
2019-05-22T01:14:23.206Z,20.13
2019-05-22T01:19:31.016Z,19.89
2019-05-22T01:24:38.744Z,19.81
2019-05-22T01:29:46.363Z,20.34
2019-05-22T01:34:54.024Z,19.41
2019-05-22T01:40:01.700Z,18.81
2019-05-22T01:45:09.261Z,19.13
2019-05-22T01:50:16.839Z,18.41
2019-05-22T01:55:24.478Z,18.68
2019-05-22T02:00:32.295Z,17.62
2019-05-22T02:05:39.958Z,17.39
2019-05-22T02:10:48.665Z,17.84
2019-05-22T02:15:56.375Z,17.39
2019-05-22T02:21:04.221Z,16.61
2019-05-22T02:26:12.196Z,16.41
2019-05-22T02:31:19.837Z,17.92
2019-05-22T02:36:28.679Z,19.14
2019-05-22T02:41:38.313Z,18.52
2019-05-22T02:46:47.699Z,17.53
2019-05-22T02:51:55.517Z,16.73
2019-05-22T02:57:04.816Z,16.89
2019-05-22T03:02:12.991Z,16.77
2019-05-22T03:07:20.632Z,16.75
2019-05-22T03:12:28.337Z,16.48
2019-05-22T03:17:35.890Z,15.98
2019-05-22T03:22:43.692Z,16.94
2019-05-22T03:27:51.356Z,16.83
2019-05-22T03:32:59.301Z,17.22
2019-05-22T03:38:07.213Z,16.71
2019-05-22T03:43:14.909Z,15.95
2019-05-22T03:48:22.752Z,16.04
2019-05-22T03:53:30.569Z,16.34
2019-05-22T03:58:38.156Z,16.72
2019-05-22T04:03:46.129Z,16.53
2019-05-22T04:08:55.034Z,16.74
2019-05-22T04:14:02.708Z,17.41
2019-05-22T04:19:12.359Z,16.87
2019-05-22T04:24:20.227Z,15.76
2019-05-22T04:29:28.030Z,15.81
2019-05-22T04:34:36.145Z,14.52
2019-05-22T04:39:43.779Z,13.88
2019-05-22T04:44:51.855Z,13.85
2019-05-22T04:50:07.602Z,13.07
2019-05-22T04:55:07.100Z,12.21
2019-05-22T05:00:14.757Z,12.61
2019-05-22T05:05:22.521Z,12.52
2019-05-22T05:10:31.469Z,10.77
2019-05-22T05:15:40.012Z,9.75
2019-05-22T05:20:47.814Z,9.85
2019-05-22T05:25:55.516Z,10.33
2019-05-22T05:31:03.514Z,11.77
2019-05-22T05:36:11.241Z,10.63
2019-05-22T05:41:18.872Z,10.28
2019-05-22T05:46:26.612Z,9.24
2019-05-22T05:51:34.398Z,9.63
2019-05-22T05:56:42.197Z,9.45
2019-05-22T06:01:50.417Z,9.15
2019-05-22T06:07:00.754Z,8.83
2019-05-22T06:12:06.397Z,8.50
2019-05-22T06:17:14.238Z,8.97
2019-05-22T06:22:22.034Z,9.47
2019-05-22T06:27:30.033Z,9.11
2019-05-22T06:32:37.934Z,8.25
2019-05-22T06:37:46.084Z,9.02
2019-05-22T06:42:54.438Z,9.29
2019-05-22T06:48:02.325Z,9.20
2019-05-22T06:53:10.518Z,9.66
2019-05-22T06:58:18.472Z,8.68
2019-05-22T07:03:26.405Z,8.75
2019-05-22T07:08:34.271Z,7.76
2019-05-22T07:13:42.311Z,7.31
2019-05-22T07:18:50.487Z,6.92
2019-05-22T07:23:58.757Z,7.16
2019-05-22T07:29:07.811Z,7.27
2019-05-22T07:34:15.847Z,7.43
2019-05-22T07:39:23.875Z,7.18
2019-05-22T07:44:32.368Z,7.16
2019-05-22T07:49:40.144Z,6.97
2019-05-22T07:54:48.117Z,6.73
2019-05-22T07:59:58.243Z,6.36
2019-05-22T08:04:55.942Z,6.36
2019-05-22T08:10:03.922Z,6.78
2019-05-22T08:15:11.613Z,6.71
2019-05-22T08:20:19.649Z,7.52
2019-05-22T08:25:27.711Z,7.33
2019-05-22T08:30:37.000Z,6.78
2019-05-22T08:35:45.397Z,6.87
2019-05-22T08:40:53.391Z,6.81
2019-05-22T08:46:01.608Z,7.02
2019-05-22T08:51:09.509Z,7.07
2019-05-22T08:56:18.392Z,6.67
2019-05-22T09:01:25.070Z,6.45
2019-05-22T09:06:37.337Z,5.75
2019-05-22T09:11:35.401Z,5.97
2019-05-22T09:16:43.504Z,6.37
2019-05-22T09:21:51.370Z,5.93
2019-05-22T09:27:02.757Z,5.95
2019-05-22T09:32:07.020Z,5.78
2019-05-22T09:37:14.881Z,5.56
2019-05-22T09:42:23.325Z,5.38
2019-05-22T09:47:31.367Z,5.51
2019-05-22T09:52:39.254Z,4.57
2019-05-22T09:57:47.284Z,4.15
2019-05-22T10:02:55.031Z,3.66
2019-05-22T10:08:02.933Z,3.89
2019-05-22T10:13:10.794Z,3.87
2019-05-22T10:18:18.647Z,3.71
2019-05-22T10:23:28.622Z,3.67
2019-05-22T10:28:36.718Z,4.39
2019-05-22T10:33:44.881Z,4.30
2019-05-22T10:38:52.588Z,4.40
2019-05-22T10:44:00.449Z,3.98
2019-05-22T10:49:08.494Z,4.09
2019-05-22T10:54:16.245Z,3.38
2019-05-22T10:59:24.043Z,3.02
2019-05-22T11:04:32.025Z,2.82
2019-05-22T11:09:40.157Z,2.75
2019-05-22T11:14:49.553Z,3.18
2019-05-22T11:19:58.936Z,2.91
2019-05-22T11:25:07.728Z,2.59
2019-05-22T11:30:15.592Z,2.76
2019-05-22T11:35:23.673Z,2.68
2019-05-22T11:40:34.640Z,2.42
2019-05-22T11:45:32.372Z,2.20
2019-05-22T11:50:41.683Z,2.40
2019-05-22T11:55:49.702Z,2.23
2019-05-22T12:00:57.762Z,2.08
2019-05-22T12:06:05.647Z,2.11
2019-05-22T12:11:13.494Z,2.17
2019-05-22T12:16:21.494Z,2.57
2019-05-22T12:21:29.655Z,2.75
2019-05-22T12:26:37.687Z,3.05
2019-05-22T12:31:49.627Z,3.12
2019-05-22T12:36:50.990Z,2.54
2019-05-22T12:41:55.095Z,3.22
2019-05-22T12:47:03.265Z,3.49
2019-05-22T12:52:11.376Z,2.90
2019-05-22T12:57:19.544Z,2.68
2019-05-22T13:02:27.659Z,2.89
2019-05-22T13:07:35.839Z,2.93
2019-05-22T13:12:43.495Z,2.99
2019-05-22T13:17:51.432Z,3.26
2019-05-22T13:22:59.371Z,2.58
2019-05-22T13:28:07.056Z,2.71
2019-05-22T13:33:14.834Z,2.34
2019-05-22T13:38:22.996Z,2.65
2019-05-22T13:43:31.149Z,2.12
2019-05-22T13:48:39.091Z,2.26
2019-05-22T13:53:46.865Z,2.19
2019-05-22T13:58:54.840Z,2.31
2019-05-22T14:04:02.719Z,2.43
2019-05-22T14:09:10.601Z,2.50
2019-05-22T14:14:18.511Z,2.42
2019-05-22T14:19:26.474Z,2.68
2019-05-22T14:24:35.430Z,2.72
2019-05-22T14:29:44.049Z,2.56
2019-05-22T14:34:51.787Z,2.66
2019-05-22T14:40:00.941Z,2.42
2019-05-22T14:45:06.780Z,3.14
2019-05-22T14:50:14.546Z,2.54
2019-05-22T14:55:22.363Z,2.79
2019-05-22T15:00:29.978Z,2.53
2019-05-22T15:05:37.653Z,2.69
2019-05-22T15:10:45.494Z,2.50
2019-05-22T15:15:53.162Z,2.48
2019-05-22T15:21:01.059Z,2.43
2019-05-22T15:26:08.778Z,2.77
2019-05-22T15:31:16.804Z,2.85
2019-05-22T15:36:24.492Z,2.58
2019-05-22T15:41:32.176Z,2.56
2019-05-22T15:46:39.989Z,2.52
2019-05-22T15:51:47.806Z,2.92
2019-05-22T15:56:55.438Z,2.77
2019-05-22T16:02:03.174Z,3.00
2019-05-22T16:07:11.763Z,2.91
2019-05-22T16:12:21.070Z,2.87
2019-05-22T16:17:28.655Z,3.18
2019-05-22T16:22:36.504Z,2.53
2019-05-22T16:27:44.249Z,2.68
2019-05-22T16:32:52.006Z,2.82
2019-05-22T16:37:59.724Z,3.05
2019-05-22T16:43:07.511Z,3.14
2019-05-22T16:48:27.689Z,3.05
2019-05-22T16:53:22.443Z,3.45
2019-05-22T16:58:30.104Z,3.24
2019-05-22T17:03:37.963Z,3.75
2019-05-22T17:08:45.789Z,4.47
2019-05-22T17:13:54.469Z,4.01
2019-05-22T17:19:02.089Z,4.35
2019-05-22T17:24:09.918Z,5.13
2019-05-22T17:29:17.591Z,4.63
2019-05-22T17:34:25.587Z,4.09
2019-05-22T17:39:33.082Z,4.17
2019-05-22T17:44:41.005Z,4.69
2019-05-22T17:49:49.056Z,4.66
2019-05-22T17:54:56.978Z,4.94
2019-05-22T18:00:04.576Z,5.02
2019-05-22T18:05:12.183Z,4.66
2019-05-22T18:10:19.823Z,4.51
2019-05-22T18:15:27.481Z,5.22
2019-05-22T18:20:43.395Z,5.97
2019-05-22T18:25:42.473Z,6.46
2019-05-22T18:30:50.246Z,6.55
2019-05-22T18:35:58.031Z,5.89
2019-05-22T18:41:06.230Z,6.39
2019-05-22T18:46:13.859Z,6.23
2019-05-22T18:51:21.709Z,6.15
2019-05-22T18:56:29.343Z,6.77
2019-05-22T19:01:37.209Z,6.02
2019-05-22T19:06:44.887Z,6.52
2019-05-22T19:11:52.581Z,6.80
2019-05-22T19:17:00.487Z,7.09
2019-05-22T19:22:08.235Z,7.19
2019-05-22T19:27:15.890Z,7.33
2019-05-22T19:32:24.438Z,7.49
2019-05-22T19:37:32.242Z,7.61
2019-05-22T19:42:39.945Z,7.45
2019-05-22T19:47:47.745Z,7.65
2019-05-22T19:52:55.545Z,7.74
2019-05-22T19:58:04.009Z,8.38
2019-05-22T20:03:11.702Z,8.38
2019-05-22T20:08:19.372Z,9.26
2019-05-22T20:13:27.098Z,8.87
2019-05-22T20:18:34.755Z,9.05
2019-05-22T20:23:42.361Z,8.73
2019-05-22T20:28:50.607Z,8.49
2019-05-22T20:33:58.706Z,8.59
2019-05-22T20:39:06.465Z,8.94
2019-05-22T20:44:14.298Z,8.89
2019-05-22T20:49:22.205Z,9.58
2019-05-22T20:54:30.237Z,8.93
2019-05-22T20:59:37.885Z,9.42
2019-05-22T21:04:45.732Z,9.52
2019-05-22T21:09:53.362Z,9.82
2019-05-22T21:15:01.161Z,9.51
2019-05-22T21:20:08.818Z,10.44
2019-05-22T21:25:16.734Z,10.59
2019-05-22T21:30:24.371Z,11.31
2019-05-22T21:35:32.033Z,11.03
2019-05-22T21:40:42.148Z,11.45
2019-05-22T21:45:40.151Z,12.05
2019-05-22T21:50:47.904Z,12.52
2019-05-22T21:56:04.819Z,12.21
2019-05-22T22:01:04.022Z,11.92
2019-05-22T22:06:11.815Z,12.17
2019-05-22T22:11:19.541Z,12.61
2019-05-22T22:16:27.291Z,12.84
2019-05-22T22:21:35.077Z,12.61
2019-05-22T22:26:42.936Z,13.13
2019-05-22T22:31:50.705Z,12.94
2019-05-22T22:36:58.392Z,13.05
2019-05-22T22:42:06.237Z,13.45
2019-05-22T22:47:13.821Z,13.31
2019-05-22T22:52:21.477Z,13.19
2019-05-22T22:57:29.049Z,12.90
2019-05-22T23:02:36.797Z,13.81
2019-05-22T23:07:44.572Z,13.02
2019-05-22T23:12:52.262Z,13.91
2019-05-22T23:18:00.042Z,13.94
2019-05-22T23:23:07.614Z,14.20
2019-05-22T23:28:15.306Z,13.87
2019-05-22T23:33:22.975Z,14.34
2019-05-22T23:38:30.634Z,13.75
2019-05-22T23:43:38.673Z,14.58
2019-05-22T23:48:46.541Z,14.28
2019-05-22T23:53:54.159Z,14.38
2019-05-22T23:59:02.044Z,14.56
